»·PEaware :: N5GL KWJF-KPSP

N5GL :: KWJF-KPSP

FLIGHT INFORMATION

Flight Status: Arrived
Operator: Privately registered:
United States
More flights under this callsign
Pilot: Georg L. (13308)
Aircraft: SOCATA TBM-900
(TBM9)
More flights by this aircraft type
Origin: KWJF Gen Fox
United States
Destination: KPSP Palm Springs Intl
United States
More flights between these airports :: More routes between these airports
Route: +PMD V386 PSP
File this flight plan on PilotEdge
Remarks:
Altitude:
(Current/Filed)
21,000ft
Speed:
(Current/Filed)
306kts
Departed: 27-Sep-20 10:03 AM
Arrived: 27-Sep-20 10:37 AM
Distance/Time
Traveled:
101nm/0:34
Distance/Time
To Go:
Arrived

Flight Plot

Page will automatically refresh every two minutes.


Map Options




Map Legend


Flown Route
Filed Route
Departure Airport
Arrival Airport
Navaid (VOR, NDB)
Fix

Horizontal Profiles

Position Reports

Time Latitude Longitude Heading Altitude Ground
Speed
27-Sep-20 09:51 34.739039 -118.216870 251 2345ft 0kts
27-Sep-20 09:52 34.739039 -118.216870 251 2345ft 0kts
27-Sep-20 09:53 34.739039 -118.216870 251 2345ft 0kts
27-Sep-20 09:54 34.739039 -118.216870 251 2345ft 0kts
27-Sep-20 09:55 34.739039 -118.216870 251 2345ft 0kts
27-Sep-20 09:56 34.739039 -118.216870 251 2345ft 0kts
27-Sep-20 09:57 34.739039 -118.216870 251 2345ft 0kts
27-Sep-20 09:58 34.739039 -118.216870 251 2345ft 0kts
27-Sep-20 09:58 34.739039 -118.216870 251 2345ft 0kts
27-Sep-20 10:00 34.740781 -118.215988 72 2345ft 22kts
27-Sep-20 10:01 34.742671 -118.208899 71 2339ft 22kts
27-Sep-20 10:01 34.743352 -118.207058 358 2338ft 0kts
27-Sep-20 10:02 34.741893 -118.215674 255 2389ft 109kts
27-Sep-20 10:03 34.723175 -118.242171 157 4183ft 141kts
27-Sep-20 10:05 34.703805 -118.189574 117 6051ft 196kts
27-Sep-20 10:05 34.678581 -118.142514 123 7471ft 193kts
27-Sep-20 10:06 34.646870 -118.089413 124 9252ft 197kts
27-Sep-20 10:07 34.628326 -118.028247 95 10919ft 202kts
27-Sep-20 10:08 34.622259 -117.959216 95 12509ft 209kts
27-Sep-20 10:09 34.615813 -117.886236 94 13787ft 218kts
27-Sep-20 10:10 34.609277 -117.812479 94 15099ft 223kts
27-Sep-20 10:11 34.602524 -117.736816 94 16682ft 226kts
27-Sep-20 10:12 34.595580 -117.659664 93 18236ft 233kts
27-Sep-20 10:13 34.588425 -117.580485 93 19804ft 238kts
27-Sep-20 10:14 34.581061 -117.499759 93 21100ft 251kts
27-Sep-20 10:15 34.572690 -117.408600 93 21097ft 285kts
27-Sep-20 10:16 34.563591 -117.310547 94 21093ft 295kts
27-Sep-20 10:17 34.553873 -117.206685 94 19935ft 320kts
27-Sep-20 10:18 34.543607 -117.098097 94 18497ft 326kts
27-Sep-20 10:19 34.533215 -116.989058 95 17163ft 320kts
27-Sep-20 10:20 34.523358 -116.886958 95 17182ft 294kts
27-Sep-20 10:21 34.513575 -116.786059 95 16069ft 312kts
27-Sep-20 10:22 34.495884 -116.683306 130 14400ft 318kts
27-Sep-20 10:23 34.415410 -116.643659 161 12663ft 313kts
27-Sep-20 10:24 34.333547 -116.611393 160 11188ft 298kts
27-Sep-20 10:25 34.258882 -116.581986 160 11189ft 273kts
27-Sep-20 10:26 34.187305 -116.553852 160 11140ft 269kts
27-Sep-20 10:27 34.115810 -116.525786 160 11054ft 269kts
27-Sep-20 10:28 34.044474 -116.497869 160 10999ft 269kts
27-Sep-20 10:29 33.973661 -116.470197 160 10999ft 268kts
27-Sep-20 10:30 33.902532 -116.442451 160 10999ft 268kts
27-Sep-20 10:31 33.830178 -116.422077 164 9456ft 269kts
27-Sep-20 10:32 33.759285 -116.401077 176 5930ft 263kts
27-Sep-20 10:33 33.741597 -116.460552 334 2811ft 227kts
27-Sep-20 10:34 33.795380 -116.477240 325 1454ft 174kts
27-Sep-20 10:35 33.823653 -116.502319 323 431ft 74kts
27-Sep-20 10:36 33.828564 -116.508241 217 429ft 1kts
27-Sep-20 10:37 33.828477 -116.508317 210 429ft 6kts
27-Sep-20 10:38 33.825507 -116.507202 211 429ft 9kts
27-Sep-20 10:39 33.825675 -116.509554 359 429ft 0kts
27-Sep-20 10:40 33.825675 -116.509554 359 429ft 0kts
27-Sep-20 10:41 33.825675 -116.509554 359 429ft 0kts
27-Sep-20 10:42 33.825675 -116.509554 359 429ft 0kts
27-Sep-20 10:43 33.825675 -116.509554 359 429ft 0kts
27-Sep-20 10:44 33.825675 -116.509554 359 429ft 0kts

Navigation Log

Ident Type
Flight plan parsing failed, navigation log unavailable